createdAt,value
2019-01-28T00:00:12.481Z,985.27
2019-01-28T00:01:12.470Z,985.30
2019-01-28T00:02:12.457Z,985.27
2019-01-28T00:03:12.447Z,985.31
2019-01-28T00:04:12.460Z,985.30
2019-01-28T00:05:12.425Z,985.33
2019-01-28T00:06:12.413Z,985.30
2019-01-28T00:07:12.402Z,985.36
2019-01-28T00:08:12.392Z,985.29
2019-01-28T00:09:12.408Z,985.38
2019-01-28T00:10:12.370Z,985.28
2019-01-28T00:11:12.358Z,985.28
2019-01-28T00:12:13.947Z,985.36
2019-01-28T00:13:12.339Z,985.37
2019-01-28T00:14:12.351Z,985.40
2019-01-28T00:15:12.316Z,985.30
2019-01-28T00:16:12.305Z,985.35
2019-01-28T00:17:12.293Z,985.31
2019-01-28T00:18:12.289Z,985.34
2019-01-28T00:19:12.297Z,985.29
2019-01-28T00:20:12.265Z,985.28
2019-01-28T00:21:12.250Z,985.26
2019-01-28T00:22:12.242Z,985.31
2019-01-28T00:23:12.232Z,985.32
2019-01-28T00:24:12.261Z,985.26
2019-01-28T00:25:12.207Z,985.32
2019-01-28T00:26:12.239Z,985.29
2019-01-28T00:27:12.188Z,985.29
2019-01-28T00:28:12.175Z,985.33
2019-01-28T00:29:12.190Z,985.30
2019-01-28T00:30:12.157Z,985.27
2019-01-28T00:31:12.144Z,985.24
2019-01-28T00:32:12.147Z,985.21
2019-01-28T00:33:12.121Z,985.27
2019-01-28T00:34:12.159Z,985.20
2019-01-28T00:35:12.099Z,985.18
2019-01-28T00:36:12.091Z,985.18
2019-01-28T00:37:12.078Z,985.16
2019-01-28T00:38:12.067Z,985.16
2019-01-28T00:39:12.079Z,985.14
2019-01-28T00:40:12.044Z,985.17
2019-01-28T00:41:12.033Z,985.21
2019-01-28T00:42:12.028Z,985.17
2019-01-28T00:43:12.013Z,985.22
2019-01-28T00:44:12.035Z,985.22
2019-01-28T00:45:11.991Z,985.19
2019-01-28T00:46:11.979Z,985.19
2019-01-28T00:47:11.969Z,985.22
2019-01-28T00:48:11.956Z,985.21
2019-01-28T00:49:11.972Z,985.21
2019-01-28T00:50:11.936Z,985.23
2019-01-28T00:51:11.925Z,985.19
2019-01-28T00:52:11.912Z,985.19
2019-01-28T00:53:11.902Z,985.20
2019-01-28T00:54:11.916Z,985.18
2019-01-28T00:55:11.880Z,985.20
2019-01-28T00:56:11.869Z,985.23
2019-01-28T00:57:11.858Z,985.25
2019-01-28T00:58:11.848Z,985.23
2019-01-28T00:59:11.864Z,985.22
2019-01-28T01:00:11.825Z,985.27
2019-01-28T01:01:11.816Z,985.25
2019-01-28T01:02:11.804Z,985.25
2019-01-28T01:03:11.795Z,985.21
2019-01-28T01:04:11.789Z,985.22
2019-01-28T01:05:11.796Z,985.20
2019-01-28T01:06:11.760Z,985.22
2019-01-28T01:07:11.750Z,985.19
2019-01-28T01:08:11.739Z,985.18
2019-01-28T01:09:11.778Z,985.15
2019-01-28T01:10:11.743Z,985.22
2019-01-28T01:11:11.708Z,985.22
2019-01-28T01:12:11.698Z,985.21
2019-01-28T01:13:11.685Z,985.28
2019-01-28T01:14:11.676Z,985.22
2019-01-28T01:15:11.688Z,985.25
2019-01-28T01:16:11.652Z,985.26
2019-01-28T01:17:11.640Z,985.25
2019-01-28T01:18:11.630Z,985.28
2019-01-28T01:19:11.620Z,985.30
2019-01-28T01:20:11.633Z,985.27
2019-01-28T01:21:11.599Z,985.25
2019-01-28T01:22:11.587Z,985.31
2019-01-28T01:23:11.575Z,985.26
2019-01-28T01:24:11.566Z,985.32
2019-01-28T01:25:11.578Z,985.23
2019-01-28T01:26:11.542Z,985.31
2019-01-28T01:27:11.532Z,985.25
2019-01-28T01:28:11.520Z,985.24
2019-01-28T01:29:11.510Z,985.26
2019-01-28T01:30:11.523Z,985.34
2019-01-28T01:31:11.490Z,985.24
2019-01-28T01:32:11.477Z,985.22
2019-01-28T01:33:11.467Z,985.19
2019-01-28T01:34:11.456Z,985.27
2019-01-28T01:35:11.468Z,985.30
2019-01-28T01:36:11.433Z,985.22
2019-01-28T01:37:11.423Z,985.19
2019-01-28T01:38:11.412Z,985.15
2019-01-28T01:39:11.403Z,985.15
2019-01-28T01:40:11.418Z,985.16
2019-01-28T01:41:11.380Z,985.21
2019-01-28T01:42:11.368Z,985.15
2019-01-28T01:43:11.357Z,985.20
2019-01-28T01:44:11.349Z,985.18
2019-01-28T01:45:11.360Z,985.18
2019-01-28T01:46:11.328Z,985.12
2019-01-28T01:47:11.314Z,985.13
2019-01-28T01:48:11.305Z,985.15
2019-01-28T01:49:11.297Z,985.13
2019-01-28T01:50:11.304Z,985.09
2019-01-28T01:51:11.317Z,985.08
2019-01-28T01:52:11.260Z,985.07
2019-01-28T01:53:11.250Z,985.14
2019-01-28T01:54:11.239Z,985.08
2019-01-28T01:55:11.252Z,985.07
2019-01-28T01:56:11.216Z,985.05
2019-01-28T01:57:11.207Z,985.07
2019-01-28T01:58:12.992Z,985.06
2019-01-28T01:59:11.184Z,985.07
2019-01-28T02:00:11.197Z,985.09
2019-01-28T02:01:11.161Z,985.12
2019-01-28T02:02:11.150Z,985.05
2019-01-28T02:03:11.140Z,985.08
2019-01-28T02:04:11.129Z,985.04
2019-01-28T02:05:11.142Z,985.00
2019-01-28T02:06:11.108Z,984.97
2019-01-28T02:07:11.096Z,984.97
2019-01-28T02:08:11.088Z,985.00
2019-01-28T02:09:11.075Z,985.00
2019-01-28T02:10:11.095Z,985.00
2019-01-28T02:11:11.052Z,985.07
2019-01-28T02:12:11.044Z,985.02
2019-01-28T02:13:11.031Z,984.93
2019-01-28T02:14:11.021Z,984.92
2019-01-28T02:15:11.034Z,984.86
2019-01-28T02:16:10.999Z,984.93
2019-01-28T02:17:10.991Z,984.88
2019-01-28T02:18:10.983Z,984.88
2019-01-28T02:19:10.971Z,984.88
2019-01-28T02:20:10.981Z,984.90
2019-01-28T02:21:10.945Z,984.87
2019-01-28T02:22:10.934Z,984.83
2019-01-28T02:23:10.928Z,984.83
2019-01-28T02:24:10.914Z,984.84
2019-01-28T02:25:10.926Z,984.89
2019-01-28T02:26:10.942Z,984.84
2019-01-28T02:27:10.881Z,984.80
2019-01-28T02:28:10.869Z,984.83
2019-01-28T02:29:10.858Z,984.81
2019-01-28T02:30:10.902Z,984.86
2019-01-28T02:31:10.838Z,984.85
2019-01-28T02:32:10.824Z,984.81
2019-01-28T02:33:10.815Z,984.84
2019-01-28T02:34:10.803Z,984.71
2019-01-28T02:35:10.816Z,984.74
2019-01-28T02:36:10.781Z,984.76
2019-01-28T02:37:10.769Z,984.76
2019-01-28T02:38:10.759Z,984.78
2019-01-28T02:39:10.748Z,984.70
2019-01-28T02:40:10.836Z,984.70
2019-01-28T02:41:10.729Z,984.71
2019-01-28T02:42:10.722Z,984.73
2019-01-28T02:43:10.705Z,984.73
2019-01-28T02:44:10.692Z,984.67
2019-01-28T02:45:10.706Z,984.74
2019-01-28T02:46:10.671Z,984.68
2019-01-28T02:47:10.661Z,984.69
2019-01-28T02:48:10.648Z,984.64
2019-01-28T02:49:10.637Z,984.66
2019-01-28T02:50:10.632Z,984.60
2019-01-28T02:51:10.642Z,984.70
2019-01-28T02:52:10.616Z,984.63
2019-01-28T02:53:10.595Z,984.62
2019-01-28T02:54:10.582Z,984.59
2019-01-28T02:55:10.585Z,984.59
2019-01-28T02:56:10.585Z,984.54
2019-01-28T02:57:10.549Z,984.54
2019-01-28T02:58:10.538Z,984.56
2019-01-28T02:59:10.527Z,984.56
2019-01-28T03:00:10.526Z,984.53
2019-01-28T03:01:10.528Z,984.50
2019-01-28T03:02:10.493Z,984.48
2019-01-28T03:03:10.485Z,984.49
2019-01-28T03:04:10.477Z,984.49
2019-01-28T03:05:10.462Z,984.49
2019-01-28T03:06:10.472Z,984.49
2019-01-28T03:07:10.440Z,984.44
2019-01-28T03:08:10.429Z,984.42
2019-01-28T03:09:10.416Z,984.42
2019-01-28T03:10:10.406Z,984.34
2019-01-28T03:11:10.568Z,984.34
2019-01-28T03:12:10.383Z,984.34
2019-01-28T03:13:10.372Z,984.30
2019-01-28T03:14:10.362Z,984.32
2019-01-28T03:15:10.348Z,984.29
2019-01-28T03:16:10.364Z,984.27
2019-01-28T03:17:10.328Z,984.30
2019-01-28T03:18:10.316Z,984.25
2019-01-28T03:19:10.304Z,984.25
2019-01-28T03:20:10.298Z,984.18
2019-01-28T03:21:10.309Z,984.24
2019-01-28T03:22:10.273Z,984.18
2019-01-28T03:23:10.262Z,984.17
2019-01-28T03:24:10.251Z,984.14
2019-01-28T03:25:10.239Z,984.08
2019-01-28T03:26:10.253Z,984.13
2019-01-28T03:27:10.217Z,984.06
2019-01-28T03:28:10.207Z,984.09
2019-01-28T03:29:10.195Z,984.01
2019-01-28T03:30:10.213Z,984.08
2019-01-28T03:31:10.214Z,984.11
2019-01-28T03:32:10.193Z,984.14
2019-01-28T03:33:10.152Z,984.09
2019-01-28T03:34:10.144Z,984.08
2019-01-28T03:35:10.130Z,984.05
2019-01-28T03:36:10.142Z,983.97
2019-01-28T03:37:10.107Z,984.01
2019-01-28T03:38:10.096Z,983.92
2019-01-28T03:39:10.087Z,984.02
2019-01-28T03:40:10.074Z,984.00
2019-01-28T03:41:10.085Z,983.98
2019-01-28T03:42:10.051Z,983.91
2019-01-28T03:43:10.041Z,983.91
2019-01-28T03:44:10.030Z,983.96
2019-01-28T03:45:10.019Z,983.96
2019-01-28T03:46:10.032Z,983.92
2019-01-28T03:47:09.995Z,983.93
2019-01-28T03:48:09.986Z,983.90
2019-01-28T03:49:09.973Z,983.88
2019-01-28T03:50:09.962Z,983.75
2019-01-28T03:51:09.976Z,983.81
2019-01-28T03:52:09.941Z,983.86
2019-01-28T03:53:09.932Z,983.81
2019-01-28T03:54:09.918Z,983.85
2019-01-28T03:55:09.906Z,983.90
2019-01-28T03:56:09.923Z,983.79
2019-01-28T03:57:09.884Z,983.80
2019-01-28T03:58:09.875Z,983.81
2019-01-28T03:59:09.863Z,983.80
2019-01-28T04:00:09.852Z,983.79
2019-01-28T04:01:09.864Z,983.84
2019-01-28T04:02:09.832Z,983.63
2019-01-28T04:03:09.817Z,983.66
2019-01-28T04:04:09.810Z,983.64
2019-01-28T04:05:09.795Z,983.59
2019-01-28T04:06:09.809Z,983.71
2019-01-28T04:07:09.773Z,983.61
2019-01-28T04:08:09.762Z,983.58
2019-01-28T04:09:09.751Z,983.56
2019-01-28T04:10:09.740Z,983.58
2019-01-28T04:11:09.756Z,983.55
2019-01-28T04:12:09.717Z,983.55
2019-01-28T04:13:09.708Z,983.54
2019-01-28T04:14:09.696Z,983.50
2019-01-28T04:15:09.684Z,983.45
2019-01-28T04:16:09.700Z,983.56
2019-01-28T04:17:09.664Z,983.60
2019-01-28T04:18:09.652Z,983.58
2019-01-28T04:19:09.641Z,983.55
2019-01-28T04:20:09.630Z,983.69
2019-01-28T04:21:09.649Z,983.56
2019-01-28T04:22:09.610Z,983.60
2019-01-28T04:23:09.600Z,983.53
2019-01-28T04:24:09.586Z,983.53
2019-01-28T04:25:09.575Z,983.58
2019-01-28T04:26:09.589Z,983.57
2019-01-28T04:27:09.554Z,983.62
2019-01-28T04:28:09.542Z,983.58
2019-01-28T04:29:09.533Z,983.54
2019-01-28T04:30:09.522Z,983.53
2019-01-28T04:31:09.532Z,983.59
2019-01-28T04:32:09.498Z,983.61
2019-01-28T04:33:09.487Z,983.62
2019-01-28T04:34:09.475Z,983.67
2019-01-28T04:35:09.466Z,983.59
2019-01-28T04:36:09.459Z,983.58
2019-01-28T04:37:09.467Z,983.56
2019-01-28T04:38:09.434Z,983.55
2019-01-28T04:39:09.422Z,983.47
2019-01-28T04:40:09.412Z,983.54
2019-01-28T04:41:09.401Z,983.57
2019-01-28T04:42:09.412Z,983.62
2019-01-28T04:43:09.377Z,983.58
2019-01-28T04:44:09.366Z,983.61
2019-01-28T04:45:09.357Z,983.55
2019-01-28T04:46:09.346Z,983.57
2019-01-28T04:47:09.357Z,983.66
2019-01-28T04:48:09.323Z,983.60
2019-01-28T04:49:09.311Z,983.62
2019-01-28T04:50:09.298Z,983.60
2019-01-28T04:51:09.292Z,983.54
2019-01-28T04:52:09.307Z,983.62
2019-01-28T04:53:09.267Z,983.60
2019-01-28T04:54:09.259Z,983.61
2019-01-28T04:55:09.254Z,983.61
2019-01-28T04:56:09.238Z,983.59
2019-01-28T04:57:09.249Z,983.63
2019-01-28T04:58:09.214Z,983.53
2019-01-28T04:59:09.199Z,983.59
2019-01-28T05:00:09.190Z,983.58
2019-01-28T05:01:09.178Z,983.50
2019-01-28T05:02:09.192Z,983.48
2019-01-28T05:03:09.159Z,983.52
2019-01-28T05:04:09.144Z,983.53
2019-01-28T05:05:09.136Z,983.50
2019-01-28T05:06:10.706Z,983.58
2019-01-28T05:07:09.137Z,983.56
2019-01-28T05:08:09.106Z,983.52
2019-01-28T05:09:09.091Z,983.43
2019-01-28T05:10:09.078Z,983.46
2019-01-28T05:11:09.069Z,983.51
2019-01-28T05:12:09.080Z,983.51
2019-01-28T05:13:09.048Z,983.45
2019-01-28T05:14:09.037Z,983.47
2019-01-28T05:15:09.032Z,983.55
2019-01-28T05:16:09.015Z,983.40
2019-01-28T05:17:09.027Z,983.47
2019-01-28T05:18:08.991Z,983.40
2019-01-28T05:19:08.980Z,983.44
2019-01-28T05:20:09.006Z,983.43
2019-01-28T05:21:08.959Z,983.49
2019-01-28T05:22:08.973Z,983.51
2019-01-28T05:23:08.937Z,983.46
2019-01-28T05:24:08.925Z,983.43
2019-01-28T05:25:08.915Z,983.42
2019-01-28T05:26:08.904Z,983.40
2019-01-28T05:27:08.915Z,983.42
2019-01-28T05:28:08.883Z,983.42
2019-01-28T05:29:08.870Z,983.34
2019-01-28T05:30:08.860Z,983.38
2019-01-28T05:31:08.850Z,983.32
2019-01-28T05:32:08.869Z,983.38
2019-01-28T05:33:08.846Z,983.35
2019-01-28T05:34:08.863Z,983.34
2019-01-28T05:35:08.803Z,983.37
2019-01-28T05:36:08.793Z,983.39
2019-01-28T05:37:08.808Z,983.47
2019-01-28T05:38:08.773Z,983.35
2019-01-28T05:39:08.761Z,983.37
2019-01-28T05:40:08.752Z,983.32
2019-01-28T05:41:08.742Z,983.31
2019-01-28T05:42:08.756Z,983.39
2019-01-28T05:43:08.715Z,983.37
2019-01-28T05:44:08.704Z,983.37
2019-01-28T05:45:08.694Z,983.41
2019-01-28T05:46:08.686Z,983.32
2019-01-28T05:47:08.696Z,983.47
2019-01-28T05:48:08.664Z,983.38
2019-01-28T05:49:08.649Z,983.34
2019-01-28T05:50:08.641Z,983.32
2019-01-28T05:51:08.627Z,983.33
2019-01-28T05:52:08.643Z,983.36
2019-01-28T05:53:08.605Z,983.42
2019-01-28T05:54:08.594Z,983.35
2019-01-28T05:55:08.586Z,983.36
2019-01-28T05:56:08.573Z,983.37
2019-01-28T05:57:08.808Z,983.54
2019-01-28T05:58:08.551Z,983.35
2019-01-28T05:59:08.541Z,983.38
2019-01-28T06:00:08.528Z,983.38
2019-01-28T06:01:08.517Z,983.37
2019-01-28T06:02:08.534Z,983.43
2019-01-28T06:03:08.496Z,983.40
2019-01-28T06:04:08.485Z,983.37
2019-01-28T06:05:08.474Z,983.44
2019-01-28T06:06:08.463Z,983.47
2019-01-28T06:07:08.477Z,983.47
2019-01-28T06:08:08.443Z,983.46
2019-01-28T06:09:08.430Z,983.43
2019-01-28T06:10:08.420Z,983.45
2019-01-28T06:11:08.408Z,983.44
2019-01-28T06:12:08.421Z,983.39
2019-01-28T06:13:08.386Z,983.43
2019-01-28T06:14:08.374Z,983.44
2019-01-28T06:15:08.364Z,983.43
2019-01-28T06:16:08.355Z,983.46
2019-01-28T06:17:08.345Z,983.45
2019-01-28T06:18:08.356Z,983.51
2019-01-28T06:19:08.320Z,983.50
2019-01-28T06:20:08.311Z,983.42
2019-01-28T06:21:08.298Z,983.45
2019-01-28T06:22:08.311Z,983.49
2019-01-28T06:23:08.276Z,983.46
2019-01-28T06:24:08.265Z,983.49
2019-01-28T06:25:08.255Z,983.49
2019-01-28T06:26:08.245Z,983.50
2019-01-28T06:27:08.235Z,983.59
2019-01-28T06:28:08.252Z,983.52
2019-01-28T06:29:08.209Z,983.53
2019-01-28T06:30:08.198Z,983.53
2019-01-28T06:31:08.187Z,983.52
2019-01-28T06:32:08.179Z,983.53
2019-01-28T06:33:08.191Z,983.52
2019-01-28T06:34:08.156Z,983.52
2019-01-28T06:35:08.145Z,983.55
2019-01-28T06:36:08.133Z,983.62
2019-01-28T06:37:08.124Z,983.45
2019-01-28T06:38:08.138Z,983.47
2019-01-28T06:39:08.100Z,983.53
2019-01-28T06:40:08.088Z,983.54
2019-01-28T06:41:08.078Z,983.53
2019-01-28T06:42:08.066Z,983.48
2019-01-28T06:43:08.082Z,983.51
2019-01-28T06:44:08.046Z,983.52
2019-01-28T06:45:08.033Z,983.62
2019-01-28T06:46:08.025Z,983.61
2019-01-28T06:47:08.012Z,983.60
2019-01-28T06:48:08.025Z,983.64
2019-01-28T06:49:07.989Z,983.65
2019-01-28T06:50:07.979Z,983.68
2019-01-28T06:51:07.967Z,983.64
2019-01-28T06:52:07.961Z,983.61
2019-01-28T06:53:07.972Z,983.62
2019-01-28T06:54:07.938Z,983.65
2019-01-28T06:55:07.923Z,983.66
2019-01-28T06:56:07.913Z,983.65
2019-01-28T06:57:07.901Z,983.71
2019-01-28T06:58:07.916Z,983.66
2019-01-28T06:59:07.878Z,983.65
2019-01-28T07:00:07.868Z,983.73
2019-01-28T07:01:07.859Z,983.67
2019-01-28T07:02:07.856Z,983.66
2019-01-28T07:03:07.859Z,983.68
2019-01-28T07:04:07.823Z,983.68
2019-01-28T07:05:07.814Z,983.67
2019-01-28T07:06:07.802Z,983.77
2019-01-28T07:07:07.791Z,983.75
2019-01-28T07:08:07.803Z,983.68
2019-01-28T07:09:07.771Z,983.74
2019-01-28T07:10:07.758Z,983.75
2019-01-28T07:11:07.748Z,983.76
2019-01-28T07:12:07.737Z,983.76
2019-01-28T07:13:07.751Z,983.77
2019-01-28T07:14:07.714Z,983.83
2019-01-28T07:15:07.704Z,983.78
2019-01-28T07:16:07.694Z,983.75
2019-01-28T07:17:07.681Z,983.75
2019-01-28T07:18:07.695Z,983.72
2019-01-28T07:19:07.658Z,983.82
2019-01-28T07:20:07.648Z,983.82
2019-01-28T07:21:07.638Z,983.90
2019-01-28T07:22:07.625Z,983.89
2019-01-28T07:23:07.640Z,983.92
2019-01-28T07:24:07.604Z,983.84
2019-01-28T07:25:07.594Z,983.91
2019-01-28T07:26:07.583Z,983.96
2019-01-28T07:27:07.569Z,983.92
2019-01-28T07:28:07.583Z,983.96
2019-01-28T07:29:07.548Z,984.00
2019-01-28T07:30:07.537Z,984.00
2019-01-28T07:31:07.527Z,984.02
2019-01-28T07:32:07.520Z,984.03
2019-01-28T07:33:07.531Z,984.07
2019-01-28T07:34:07.494Z,984.04
2019-01-28T07:35:07.483Z,984.15
2019-01-28T07:36:07.473Z,984.07
2019-01-28T07:37:07.460Z,984.13
2019-01-28T07:38:07.473Z,984.08
2019-01-28T07:39:07.464Z,984.15
2019-01-28T07:40:07.429Z,984.11
2019-01-28T07:41:07.419Z,984.11
2019-01-28T07:42:07.406Z,984.11
2019-01-28T07:43:07.417Z,984.25
2019-01-28T07:44:07.384Z,984.18
2019-01-28T07:45:07.375Z,984.16
2019-01-28T07:46:07.361Z,984.17
2019-01-28T07:47:07.351Z,984.19
2019-01-28T07:48:07.363Z,984.18
2019-01-28T07:49:07.332Z,984.22
2019-01-28T07:50:07.319Z,984.22
2019-01-28T07:51:07.308Z,984.22
2019-01-28T07:52:07.297Z,984.28
2019-01-28T07:53:07.308Z,984.27
2019-01-28T07:54:07.274Z,984.24
2019-01-28T07:55:07.262Z,984.24
2019-01-28T07:56:07.259Z,984.25
2019-01-28T07:57:07.240Z,984.21
2019-01-28T07:58:07.253Z,984.22
2019-01-28T07:59:07.220Z,984.26
2019-01-28T08:00:07.208Z,984.23
2019-01-28T08:01:07.196Z,984.29
2019-01-28T08:02:07.186Z,984.31
2019-01-28T08:03:07.176Z,984.25
2019-01-28T08:04:07.188Z,984.35
2019-01-28T08:05:07.153Z,984.26
2019-01-28T08:06:07.143Z,984.38
2019-01-28T08:07:07.131Z,984.40
2019-01-28T08:08:07.147Z,984.40
2019-01-28T08:09:07.108Z,984.33
2019-01-28T08:10:07.099Z,984.41
2019-01-28T08:11:07.087Z,984.40
2019-01-28T08:12:07.076Z,984.44
2019-01-28T08:13:07.067Z,984.34
2019-01-28T08:14:07.076Z,984.38
2019-01-28T08:15:07.041Z,984.42
2019-01-28T08:16:07.030Z,984.36
2019-01-28T08:17:07.021Z,984.43
2019-01-28T08:18:10.974Z,984.47
2019-01-28T08:19:07.020Z,984.44
2019-01-28T08:20:11.398Z,984.48
2019-01-28T08:21:06.976Z,984.47
2019-01-28T08:22:06.965Z,984.47
2019-01-28T08:23:06.953Z,984.55
2019-01-28T08:24:06.970Z,984.43
2019-01-28T08:25:06.932Z,984.48
2019-01-28T08:26:06.923Z,984.52
2019-01-28T08:27:06.912Z,984.47
2019-01-28T08:28:06.898Z,984.56
2019-01-28T08:29:06.917Z,984.53
2019-01-28T08:30:06.931Z,984.51
2019-01-28T08:31:06.952Z,984.62
2019-01-28T08:32:06.855Z,984.57
2019-01-28T08:33:06.844Z,984.59
2019-01-28T08:34:06.856Z,984.60
2019-01-28T08:35:06.822Z,984.59
2019-01-28T08:36:06.811Z,984.64
2019-01-28T08:37:06.801Z,984.64
2019-01-28T08:38:07.529Z,984.57
2019-01-28T08:39:10.052Z,984.56
2019-01-28T08:40:06.767Z,984.64
2019-01-28T08:41:06.759Z,984.55
2019-01-28T08:42:06.744Z,984.57
2019-01-28T08:43:06.734Z,984.68
2019-01-28T08:44:06.746Z,984.60
2019-01-28T08:45:06.710Z,984.58
2019-01-28T08:46:06.699Z,984.59
2019-01-28T08:47:06.688Z,984.60
2019-01-28T08:48:06.678Z,984.53
2019-01-28T08:49:06.690Z,984.61
2019-01-28T08:50:06.657Z,984.63
2019-01-28T08:51:06.645Z,984.66
2019-01-28T08:52:06.633Z,984.63
2019-01-28T08:53:06.621Z,984.63
2019-01-28T08:54:06.636Z,984.68
2019-01-28T08:55:06.601Z,984.60
2019-01-28T08:56:06.591Z,984.68
2019-01-28T08:57:06.578Z,984.62
2019-01-28T08:58:06.567Z,984.69
2019-01-28T08:59:06.582Z,984.70
2019-01-28T09:00:06.548Z,984.69
2019-01-28T09:01:06.533Z,984.63
2019-01-28T09:02:06.523Z,984.75
2019-01-28T09:03:06.512Z,984.74
2019-01-28T09:04:06.524Z,984.73
2019-01-28T09:05:06.491Z,984.75
2019-01-28T09:06:06.478Z,984.82
2019-01-28T09:07:06.468Z,984.76
2019-01-28T09:08:06.457Z,984.81
2019-01-28T09:09:06.473Z,984.74
2019-01-28T09:10:06.435Z,984.76
2019-01-28T09:11:06.423Z,984.84
2019-01-28T09:12:06.413Z,984.89
2019-01-28T09:13:06.400Z,984.92
2019-01-28T09:14:06.414Z,984.87
2019-01-28T09:15:06.382Z,984.92
2019-01-28T09:16:06.368Z,984.87
2019-01-28T09:17:06.356Z,984.96
2019-01-28T09:18:06.345Z,984.94
2019-01-28T09:19:06.359Z,984.95
2019-01-28T09:20:06.327Z,984.98
2019-01-28T09:21:06.313Z,985.05
2019-01-28T09:22:06.302Z,985.04
2019-01-28T09:23:06.291Z,985.09
2019-01-28T09:24:06.304Z,985.00
2019-01-28T09:25:06.270Z,985.09
2019-01-28T09:26:06.633Z,985.12
2019-01-28T09:27:06.247Z,985.05
2019-01-28T09:28:06.236Z,985.06
2019-01-28T09:29:06.249Z,985.16
2019-01-28T09:30:06.216Z,985.24
2019-01-28T09:31:06.202Z,985.20
2019-01-28T09:32:06.193Z,985.18
2019-01-28T09:33:06.182Z,985.29
2019-01-28T09:34:06.195Z,985.26
2019-01-28T09:35:06.158Z,985.29
2019-01-28T09:36:06.148Z,985.34
2019-01-28T09:37:06.137Z,985.32
2019-01-28T09:38:06.125Z,985.27
2019-01-28T09:39:06.138Z,985.42
2019-01-28T09:40:06.108Z,985.38
2019-01-28T09:41:06.091Z,985.44
2019-01-28T09:42:06.080Z,985.43
2019-01-28T09:43:06.070Z,985.36
2019-01-28T09:44:06.061Z,985.46
2019-01-28T09:45:06.073Z,985.44
2019-01-28T09:46:06.037Z,985.40
2019-01-28T09:47:06.027Z,985.45
2019-01-28T09:48:06.016Z,985.52
2019-01-28T09:49:06.006Z,985.47
2019-01-28T09:50:06.016Z,985.56
2019-01-28T09:51:05.981Z,985.56
2019-01-28T09:52:05.971Z,985.58
2019-01-28T09:53:05.959Z,985.61
2019-01-28T09:54:05.949Z,985.58
2019-01-28T09:55:05.965Z,985.60
2019-01-28T09:56:05.926Z,985.66
2019-01-28T09:57:05.917Z,985.72
2019-01-28T09:58:05.907Z,985.80
2019-01-28T09:59:05.895Z,985.75
2019-01-28T10:00:05.911Z,985.75
2019-01-28T10:01:05.871Z,985.79
2019-01-28T10:02:05.861Z,985.76
2019-01-28T10:03:05.887Z,985.82
2019-01-28T10:04:05.848Z,985.82
2019-01-28T10:05:05.911Z,985.91
2019-01-28T10:06:05.841Z,985.89
2019-01-28T10:07:05.806Z,985.93
2019-01-28T10:08:05.798Z,985.87
2019-01-28T10:09:10.056Z,985.96
2019-01-28T10:10:05.805Z,985.99
2019-01-28T10:11:05.762Z,986.00
2019-01-28T10:12:05.750Z,986.07
2019-01-28T10:13:05.740Z,986.07
2019-01-28T10:14:05.730Z,986.10
2019-01-28T10:15:05.742Z,986.08
2019-01-28T10:16:05.703Z,986.13
2019-01-28T10:17:05.693Z,986.20
2019-01-28T10:18:05.686Z,986.27
2019-01-28T10:19:05.672Z,986.27
2019-01-28T10:20:05.684Z,986.29
2019-01-28T10:21:05.649Z,986.32
2019-01-28T10:22:05.638Z,986.39
2019-01-28T10:23:05.653Z,986.27
2019-01-28T10:24:05.616Z,986.30
2019-01-28T10:25:05.630Z,986.38
2019-01-28T10:26:05.592Z,986.49
2019-01-28T10:27:05.582Z,986.63
2019-01-28T10:28:05.575Z,986.53
2019-01-28T10:29:05.561Z,986.45
2019-01-28T10:30:05.575Z,986.51
2019-01-28T10:31:05.538Z,986.48
2019-01-28T10:32:05.527Z,986.51
2019-01-28T10:33:05.516Z,986.49
2019-01-28T10:34:06.451Z,986.54
2019-01-28T10:35:05.612Z,986.52
2019-01-28T10:36:05.576Z,986.48
2019-01-28T10:37:05.470Z,986.53
2019-01-28T10:38:05.462Z,986.56
2019-01-28T10:39:05.448Z,986.51
2019-01-28T10:40:07.083Z,986.57
2019-01-28T10:41:05.427Z,986.54
2019-01-28T10:42:09.682Z,986.60
2019-01-28T10:43:05.407Z,986.67
2019-01-28T10:44:10.128Z,986.57
2019-01-28T10:45:06.404Z,986.66
2019-01-28T10:46:05.374Z,986.72
2019-01-28T10:47:05.363Z,986.74
2019-01-28T10:48:05.362Z,986.70
2019-01-28T10:49:05.341Z,986.75
2019-01-28T10:50:05.356Z,986.74
2019-01-28T10:51:05.320Z,986.76
2019-01-28T10:52:05.306Z,986.72
2019-01-28T10:53:05.294Z,986.78
2019-01-28T10:54:05.284Z,986.78
2019-01-28T10:55:05.295Z,986.84
2019-01-28T10:56:05.261Z,986.85
2019-01-28T10:57:05.253Z,986.91
2019-01-28T10:58:05.240Z,986.83
2019-01-28T10:59:05.227Z,987.09
2019-01-28T11:00:05.243Z,986.83
2019-01-28T11:01:05.206Z,987.00
2019-01-28T11:02:05.195Z,986.84
2019-01-28T11:03:05.185Z,986.92
2019-01-28T11:04:05.331Z,986.87
2019-01-28T11:05:05.187Z,986.94
2019-01-28T11:06:05.151Z,986.94
2019-01-28T11:07:05.140Z,986.96
2019-01-28T11:08:05.129Z,986.98
2019-01-28T11:09:05.126Z,987.00
2019-01-28T11:10:05.132Z,987.05
2019-01-28T11:11:05.096Z,986.98
2019-01-28T11:12:05.192Z,987.11
2019-01-28T11:13:05.322Z,986.99
2019-01-28T11:14:05.142Z,987.14
2019-01-28T11:15:05.757Z,987.11
2019-01-28T11:16:05.450Z,987.08
2019-01-28T11:17:06.130Z,987.12
2019-01-28T11:18:05.135Z,987.07
2019-01-28T11:19:05.137Z,987.15
2019-01-28T11:20:05.040Z,987.15
2019-01-28T11:21:05.111Z,987.14
2019-01-28T11:22:04.974Z,987.21
2019-01-28T11:23:04.970Z,987.19
2019-01-28T11:24:05.042Z,987.20
2019-01-28T11:25:04.972Z,987.24
2019-01-28T11:26:05.000Z,987.20
2019-01-28T11:27:04.918Z,987.26
2019-01-28T11:28:04.991Z,987.16
2019-01-28T11:29:04.987Z,987.32
2019-01-28T11:30:05.094Z,987.30
2019-01-28T11:31:05.028Z,987.29
2019-01-28T11:32:04.869Z,987.30
2019-01-28T11:33:04.880Z,987.36
2019-01-28T11:34:04.892Z,987.41
2019-01-28T11:35:04.963Z,987.37
2019-01-28T11:36:05.800Z,987.37
2019-01-28T11:37:04.960Z,987.38
2019-01-28T11:38:04.818Z,987.47
2019-01-28T11:39:04.884Z,987.46
2019-01-28T11:40:04.831Z,987.55
2019-01-28T11:41:04.791Z,987.47
2019-01-28T11:42:04.804Z,987.47
2019-01-28T11:43:04.838Z,987.53
2019-01-28T11:44:04.769Z,987.44
2019-01-28T11:45:04.815Z,987.55
2019-01-28T11:46:04.747Z,987.57
2019-01-28T11:47:04.695Z,987.55
2019-01-28T11:48:04.817Z,987.60
2019-01-28T11:49:06.076Z,987.66
2019-01-28T11:50:04.673Z,987.67
2019-01-28T11:51:04.675Z,987.62
2019-01-28T11:52:04.645Z,987.72
2019-01-28T11:53:04.630Z,987.78
2019-01-28T11:54:04.620Z,987.79
2019-01-28T11:55:04.609Z,987.72
2019-01-28T11:56:04.622Z,987.81
2019-01-28T11:57:04.586Z,987.80
2019-01-28T11:58:04.574Z,987.77
2019-01-28T11:59:04.562Z,987.83
2019-01-28T12:00:04.551Z,987.84
2019-01-28T12:01:04.564Z,987.82
2019-01-28T12:02:04.530Z,987.79
2019-01-28T12:03:04.525Z,987.90
2019-01-28T12:04:04.511Z,987.89
2019-01-28T12:05:04.502Z,987.92
2019-01-28T12:06:04.510Z,987.97
2019-01-28T12:07:04.511Z,987.95
2019-01-28T12:08:04.462Z,987.99
2019-01-28T12:09:04.455Z,988.03
2019-01-28T12:10:04.450Z,988.06
2019-01-28T12:11:04.454Z,988.08
2019-01-28T12:12:04.491Z,988.18
2019-01-28T12:13:04.409Z,988.10
2019-01-28T12:14:04.400Z,988.13
2019-01-28T12:15:04.386Z,988.21
2019-01-28T12:16:04.402Z,988.20
2019-01-28T12:17:04.367Z,988.14
2019-01-28T12:18:05.921Z,988.25
2019-01-28T12:19:04.525Z,988.20
2019-01-28T12:20:04.412Z,988.29
2019-01-28T12:21:04.346Z,988.25
2019-01-28T12:22:04.309Z,988.31
2019-01-28T12:23:04.300Z,988.31
2019-01-28T12:24:04.291Z,988.30
2019-01-28T12:25:04.279Z,988.33
2019-01-28T12:26:04.293Z,988.37
2019-01-28T12:27:04.257Z,988.38
2019-01-28T12:28:04.247Z,988.46